Johnson Creek, Wisconsin
Current Conditions -  °F | °C
As of 8:35 PM on Saturday 20 Dec 2014 (Local Time) from KRYV Reporting Station
Haze Haze  
Wind Chill: 29°   Ceiling: 3100
Heat Index: 29°   Visibility: 5mi
Dew Point: 28°   Wind: 0mph
Humidity: 97%   Direction: NA
Pressure: 30.22"   Gusts: NA
Location:  43.08°N, 88.77°W
Report Text: KRYV 210235Z AUTO 00000KT 5SM BR OVC031 M02/M02 A3022 RMK AO2 T10161020
Loading
Personal Weather Stations






























Interactive Weather Map New forecast layout! Learn more

10-Day Weather Forecast

Advertisements
Track Severe Weather on mobile